sensor_id;sensor_type;location;lat;lon;timestamp;pressure;altitude;pressure_sealevel;temperature;humidity
33185;BME280;19550;42.872;25.494;2023-01-28T00:01:40;95770.97;;;0.37;100.00
33185;BME280;19550;42.872;25.494;2023-01-28T00:04:07;95768.78;;;0.29;100.00
33185;BME280;19550;42.872;25.494;2023-01-28T00:06:34;95758.44;;;0.16;100.00
33185;BME280;19550;42.872;25.494;2023-01-28T00:09:03;95780.78;;;0.33;100.00
33185;BME280;19550;42.872;25.494;2023-01-28T00:11:30;95748.34;;;0.17;100.00
33185;BME280;19550;42.872;25.494;2023-01-28T00:13:58;95762.22;;;0.20;100.00
33185;BME280;19550;42.872;25.494;2023-01-28T00:16:26;95780.50;;;0.30;100.00
33185;BME280;19550;42.872;25.494;2023-01-28T00:18:54;95779.69;;;0.34;100.00
33185;BME280;19550;42.872;25.494;2023-01-28T00:21:21;95791.16;;;0.31;100.00
33185;BME280;19550;42.872;25.494;2023-01-28T00:23:51;95771.53;;;0.24;100.00
33185;BME280;19550;42.872;25.494;2023-01-28T00:26:20;95787.06;;;0.44;100.00
33185;BME280;19550;42.872;25.494;2023-01-28T00:28:48;95791.97;;;0.32;100.00
33185;BME280;19550;42.872;25.494;2023-01-28T00:31:16;95783.50;;;0.23;100.00
33185;BME280;19550;42.872;25.494;2023-01-28T00:33:44;95782.94;;;0.21;100.00
33185;BME280;19550;42.872;25.494;2023-01-28T00:36:12;95782.38;;;0.14;100.00
33185;BME280;19550;42.872;25.494;2023-01-28T00:38:39;95745.31;;;-0.12;100.00
33185;BME280;19550;42.872;25.494;2023-01-28T00:41:07;95771.44;;;-0.06;100.00
33185;BME280;19550;42.872;25.494;2023-01-28T00:43:36;95797.38;;;0.22;100.00
33185;BME280;19550;42.872;25.494;2023-01-28T00:46:04;95794.66;;;0.22;100.00
33185;BME280;19550;42.872;25.494;2023-01-28T00:48:31;95785.13;;;0.09;100.00
33185;BME280;19550;42.872;25.494;2023-01-28T00:50:58;95801.50;;;0.24;100.00
33185;BME280;19550;42.872;25.494;2023-01-28T00:53:25;95771.50;;;0.04;100.00
33185;BME280;19550;42.872;25.494;2023-01-28T00:55:52;95803.66;;;0.27;100.00
33185;BME280;19550;42.872;25.494;2023-01-28T00:58:20;95799.31;;;0.26;100.00
33185;BME280;19550;42.872;25.494;2023-01-28T01:00:48;95807.75;;;0.30;100.00
33185;BME280;19550;42.872;25.494;2023-01-28T01:03:15;95804.22;;;0.24;100.00
33185;BME280;19550;42.872;25.494;2023-01-28T01:05:42;95793.84;;;0.16;100.00
33185;BME280;19550;42.872;25.494;2023-01-28T01:08:09;95814.03;;;0.30;100.00
33185;BME280;19550;42.872;25.494;2023-01-28T01:10:37;95791.69;;;0.23;100.00
33185;BME280;19550;42.872;25.494;2023-01-28T01:13:05;95813.75;;;0.27;100.00
33185;BME280;19550;42.872;25.494;2023-01-28T01:15:32;95814.59;;;0.32;100.00
33185;BME280;19550;42.872;25.494;2023-01-28T01:18:01;95800.38;;;0.15;100.00
33185;BME280;19550;42.872;25.494;2023-01-28T01:20:28;95809.94;;;0.28;100.00
33185;BME280;19550;42.872;25.494;2023-01-28T01:22:57;95812.09;;;0.21;100.00
33185;BME280;19550;42.872;25.494;2023-01-28T01:25:24;95816.19;;;0.28;100.00
33185;BME280;19550;42.872;25.494;2023-01-28T01:27:51;95805.03;;;0.25;100.00
33185;BME280;19550;42.872;25.494;2023-01-28T01:30:18;95811.84;;;0.27;100.00
33185;BME280;19550;42.872;25.494;2023-01-28T01:32:45;95815.38;;;0.23;100.00
33185;BME280;19550;42.872;25.494;2023-01-28T01:35:14;95809.13;;;0.22;100.00
33185;BME280;19550;42.872;25.494;2023-01-28T01:37:42;95820.56;;;0.29;100.00
33185;BME280;19550;42.872;25.494;2023-01-28T01:40:10;95814.84;;;0.36;100.00
33185;BME280;19550;42.872;25.494;2023-01-28T01:42:38;95791.94;;;0.17;100.00
33185;BME280;19550;42.872;25.494;2023-01-28T01:45:10;95796.56;;;0.16;100.00
33185;BME280;19550;42.872;25.494;2023-01-28T01:47:41;95783.72;;;0.02;100.00
33185;BME280;19550;42.872;25.494;2023-01-28T01:50:17;95807.22;;;0.28;100.00
33185;BME280;19550;42.872;25.494;2023-01-28T01:52:49;95802.56;;;0.28;100.00
33185;BME280;19550;42.872;25.494;2023-01-28T01:55:20;95828.22;;;0.32;100.00
33185;BME280;19550;42.872;25.494;2023-01-28T01:57:51;95807.75;;;0.20;100.00
33185;BME280;19550;42.872;25.494;2023-01-28T02:00:21;95803.13;;;0.30;100.00
33185;BME280;19550;42.872;25.494;2023-01-28T02:02:49;95817.56;;;0.41;100.00
33185;BME280;19550;42.872;25.494;2023-01-28T02:05:20;95820.84;;;0.48;100.00
33185;BME280;19550;42.872;25.494;2023-01-28T02:07:49;95820.59;;;0.50;100.00
33185;BME280;19550;42.872;25.494;2023-01-28T02:10:20;95818.41;;;0.47;100.00
33185;BME280;19550;42.872;25.494;2023-01-28T02:12:48;95824.41;;;0.44;100.00
33185;BME280;19550;42.872;25.494;2023-01-28T02:15:20;95827.97;;;0.39;100.00
33185;BME280;19550;42.872;25.494;2023-01-28T02:17:49;95824.41;;;0.44;100.00
33185;BME280;19550;42.872;25.494;2023-01-28T02:20:20;95821.38;;;0.40;100.00
33185;BME280;19550;42.872;25.494;2023-01-28T02:23:06;95829.31;;;0.36;100.00
33185;BME280;19550;42.872;25.494;2023-01-28T02:28:44;95832.03;;;0.26;100.00
33185;BME280;19550;42.872;25.494;2023-01-28T02:31:17;95822.22;;;0.30;100.00
33185;BME280;19550;42.872;25.494;2023-01-28T02:33:50;95819.22;;;0.42;100.00
33185;BME280;19550;42.872;25.494;2023-01-28T02:36:23;95831.75;;;0.43;100.00
33185;BME280;19550;42.872;25.494;2023-01-28T02:38:55;95838.56;;;0.40;100.00
33185;BME280;19550;42.872;25.494;2023-01-28T02:41:28;95843.19;;;0.30;100.00
33185;BME280;19550;42.872;25.494;2023-01-28T02:44:01;95842.66;;;0.38;100.00
33185;BME280;19550;42.872;25.494;2023-01-28T02:46:35;95838.31;;;0.42;100.00
33185;BME280;19550;42.872;25.494;2023-01-28T02:49:24;95845.09;;;0.34;100.00
33185;BME280;19550;42.872;25.494;2023-01-28T02:54:49;95852.75;;;0.37;100.00
33185;BME280;19550;42.872;25.494;2023-01-28T02:57:29;95842.38;;;0.34;100.00
33185;BME280;19550;42.872;25.494;2023-01-28T03:00:07;95854.34;;;0.33;100.00
33185;BME280;19550;42.872;25.494;2023-01-28T03:02:39;95832.28;;;0.30;100.00
33185;BME280;19550;42.872;25.494;2023-01-28T03:05:13;95844.84;;;0.36;100.00
33185;BME280;19550;42.872;25.494;2023-01-28T03:07:43;95847.28;;;0.32;100.00
33185;BME280;19550;42.872;25.494;2023-01-28T03:10:13;95845.41;;;0.38;100.00
33185;BME280;19550;42.872;25.494;2023-01-28T03:12:43;95816.72;;;0.20;100.00
33185;BME280;19550;42.872;25.494;2023-01-28T03:15:34;95845.63;;;0.16;100.00
33185;BME280;19550;42.872;25.494;2023-01-28T03:18:24;95853.78;;;0.21;100.00
33185;BME280;19550;42.872;25.494;2023-01-28T03:21:14;95861.75;;;0.33;100.00
33185;BME280;19550;42.872;25.494;2023-01-28T03:24:04;95842.94;;;0.31;100.00
33185;BME280;19550;42.872;25.494;2023-01-28T03:26:53;95855.94;;;0.14;100.00
33185;BME280;19550;42.872;25.494;2023-01-28T03:29:41;95864.41;;;0.18;100.00
33185;BME280;19550;42.872;25.494;2023-01-28T03:32:29;95866.06;;;0.19;100.00
33185;BME280;19550;42.872;25.494;2023-01-28T03:35:15;95867.72;;;0.25;100.00
33185;BME280;19550;42.872;25.494;2023-01-28T03:38:01;95858.16;;;0.22;100.00
33185;BME280;19550;42.872;25.494;2023-01-28T03:40:48;95867.41;;;0.21;100.00
33185;BME280;19550;42.872;25.494;2023-01-28T03:43:16;95866.91;;;0.29;100.00
33185;BME280;19550;42.872;25.494;2023-01-28T03:45:42;95843.72;;;0.22;100.00
33185;BME280;19550;42.872;25.494;2023-01-28T03:48:12;95844.78;;;0.16;100.00
33185;BME280;19550;42.872;25.494;2023-01-28T03:50:39;95871.81;;;0.32;100.00
33185;BME280;19550;42.872;25.494;2023-01-28T03:53:06;95868.53;;;0.30;100.00
33185;BME280;19550;42.872;25.494;2023-01-28T03:55:40;95878.09;;;0.43;100.00
33185;BME280;19550;42.872;25.494;2023-01-28T03:58:07;95862.84;;;0.37;100.00
33185;BME280;19550;42.872;25.494;2023-01-28T04:00:34;95880.56;;;0.45;100.00
33185;BME280;19550;42.872;25.494;2023-01-28T04:03:02;95861.44;;;0.34;100.00
33185;BME280;19550;42.872;25.494;2023-01-28T04:05:42;95878.38;;;0.36;100.00
33185;BME280;19550;42.872;25.494;2023-01-28T04:08:10;95860.63;;;0.19;100.00
33185;BME280;19550;42.872;25.494;2023-01-28T04:10:37;95878.63;;;0.25;100.00
33185;BME280;19550;42.872;25.494;2023-01-28T04:13:04;95880.50;;;0.24;100.00
33185;BME280;19550;42.872;25.494;2023-01-28T04:15:32;95886.75;;;0.15;100.00
33185;BME280;19550;42.872;25.494;2023-01-28T04:18:00;95891.09;;;0.11;100.00
33185;BME280;19550;42.872;25.494;2023-01-28T04:20:27;95888.94;;;0.13;100.00
33185;BME280;19550;42.872;25.494;2023-01-28T04:22:56;95887.06;;;0.23;100.00
33185;BME280;19550;42.872;25.494;2023-01-28T04:25:23;95914.03;;;0.25;100.00
33185;BME280;19550;42.872;25.494;2023-01-28T04:27:50;95876.09;;;0.08;100.00
33185;BME280;19550;42.872;25.494;2023-01-28T04:30:17;95893.63;;;0.32;100.00
33185;BME280;19550;42.872;25.494;2023-01-28T04:32:45;95916.75;;;0.20;100.00
33185;BME280;19550;42.872;25.494;2023-01-28T04:35:15;95890.50;;;-0.02;100.00
33185;BME280;19550;42.872;25.494;2023-01-28T04:37:42;95892.41;;;-0.07;100.00
33185;BME280;19550;42.872;25.494;2023-01-28T04:40:11;95924.56;;;0.01;100.00
33185;BME280;19550;42.872;25.494;2023-01-28T04:42:38;95911.81;;;0.12;100.00
33185;BME280;19550;42.872;25.494;2023-01-28T04:45:06;95920.56;;;0.19;100.00
33185;BME280;19550;42.872;25.494;2023-01-28T04:47:34;95923.78;;;0.11;100.00
33185;BME280;19550;42.872;25.494;2023-01-28T04:50:01;95921.56;;;0.03;100.00
33185;BME280;19550;42.872;25.494;2023-01-28T04:52:27;95930.00;;;0.01;100.00
33185;BME280;19550;42.872;25.494;2023-01-28T04:54:54;95904.91;;;-0.11;100.00
33185;BME280;19550;42.872;25.494;2023-01-28T04:57:23;95926.50;;;0.06;100.00
33185;BME280;19550;42.872;25.494;2023-01-28T04:59:50;95933.88;;;0.10;100.00
33185;BME280;19550;42.872;25.494;2023-01-28T05:02:16;95944.00;;;0.20;100.00
33185;BME280;19550;42.872;25.494;2023-01-28T05:04:43;95941.53;;;0.18;100.00
33185;BME280;19550;42.872;25.494;2023-01-28T05:07:10;95942.88;;;0.16;100.00
33185;BME280;19550;42.872;25.494;2023-01-28T05:09:37;95927.59;;;0.15;100.00
33185;BME280;19550;42.872;25.494;2023-01-28T05:12:05;95944.78;;;0.15;100.00
33185;BME280;19550;42.872;25.494;2023-01-28T05:14:33;95937.44;;;0.16;100.00
33185;BME280;19550;42.872;25.494;2023-01-28T05:17:00;95961.97;;;0.21;100.00
33185;BME280;19550;42.872;25.494;2023-01-28T05:19:27;95963.63;;;0.27;100.00
33185;BME280;19550;42.872;25.494;2023-01-28T05:21:54;95963.69;;;0.37;100.00
33185;BME280;19550;42.872;25.494;2023-01-28T05:24:20;95961.22;;;0.35;100.00
33185;BME280;19550;42.872;25.494;2023-01-28T05:26:47;95965.84;;;0.35;100.00
33185;BME280;19550;42.872;25.494;2023-01-28T05:29:14;95975.91;;;0.34;100.00
33185;BME280;19550;42.872;25.494;2023-01-28T05:31:43;95972.09;;;0.25;100.00
33185;BME280;19550;42.872;25.494;2023-01-28T05:34:09;95976.47;;;0.31;100.00
33185;BME280;19550;42.872;25.494;2023-01-28T05:36:36;95966.91;;;0.24;100.00
33185;BME280;19550;42.872;25.494;2023-01-28T05:39:05;95983.00;;;0.25;100.00
33185;BME280;19550;42.872;25.494;2023-01-28T05:41:32;95985.38;;;0.12;100.00
33185;BME280;19550;42.872;25.494;2023-01-28T05:44:00;95984.56;;;0.16;100.00
33185;BME280;19550;42.872;25.494;2023-01-28T05:46:27;95990.03;;;0.16;100.00
33185;BME280;19550;42.872;25.494;2023-01-28T05:48:55;95973.09;;;0.09;100.00
33185;BME280;19550;42.872;25.494;2023-01-28T05:51:22;95992.50;;;0.18;100.00
33185;BME280;19550;42.872;25.494;2023-01-28T05:53:49;95978.59;;;0.19;100.00
33185;BME280;19550;42.872;25.494;2023-01-28T05:56:16;95994.16;;;0.29;100.00
33185;BME280;19550;42.872;25.494;2023-01-28T05:58:43;95991.13;;;0.20;100.00
33185;BME280;19550;42.872;25.494;2023-01-28T06:01:09;96005.63;;;0.36;100.00
33185;BME280;19550;42.872;25.494;2023-01-28T06:03:36;96011.41;;;0.39;100.00
33185;BME280;19550;42.872;25.494;2023-01-28T06:06:05;96019.28;;;0.36;100.00
33185;BME280;19550;42.872;25.494;2023-01-28T06:08:32;96020.59;;;0.28;100.00
33185;BME280;19550;42.872;25.494;2023-01-28T06:11:03;96020.06;;;0.26;100.00
33185;BME280;19550;42.872;25.494;2023-01-28T06:13:30;96022.16;;;0.14;100.00
33185;BME280;19550;42.872;25.494;2023-01-28T06:15:57;96028.72;;;0.13;100.00
33185;BME280;19550;42.872;25.494;2023-01-28T06:18:24;96033.56;;;0.06;100.00
33185;BME280;19550;42.872;25.494;2023-01-28T06:20:52;96036.22;;;-0.04;100.00
33185;BME280;19550;42.872;25.494;2023-01-28T06:23:20;96041.78;;;0.11;100.00
33185;BME280;19550;42.872;25.494;2023-01-28T06:25:52;96044.50;;;0.16;100.00
33185;BME280;19550;42.872;25.494;2023-01-28T06:28:19;96048.88;;;0.17;100.00
33185;BME280;19550;42.872;25.494;2023-01-28T06:30:47;96037.13;;;0.07;100.00
33185;BME280;19550;42.872;25.494;2023-01-28T06:33:14;96045.84;;;0.14;100.00
33185;BME280;19550;42.872;25.494;2023-01-28T06:35:41;96047.56;;;0.20;100.00
33185;BME280;19550;42.872;25.494;2023-01-28T06:38:09;96021.63;;;0.12;100.00
33185;BME280;19550;42.872;25.494;2023-01-28T06:40:38;96058.47;;;0.25;100.00
33185;BME280;19550;42.872;25.494;2023-01-28T06:43:05;96056.03;;;0.33;100.00
33185;BME280;19550;42.872;25.494;2023-01-28T06:45:32;96060.50;;;0.50;100.00
33185;BME280;19550;42.872;25.494;2023-01-28T06:47:59;96064.88;;;0.51;100.00
33185;BME280;19550;42.872;25.494;2023-01-28T06:50:26;96035.59;;;0.26;100.00
33185;BME280;19550;42.872;25.494;2023-01-28T06:52:53;96068.16;;;0.53;100.00
33185;BME280;19550;42.872;25.494;2023-01-28T06:55:20;96069.50;;;0.50;100.00
33185;BME280;19550;42.872;25.494;2023-01-28T06:57:48;96067.91;;;0.59;100.00
33185;BME280;19550;42.872;25.494;2023-01-28T07:00:16;96066.53;;;0.57;100.00
33185;BME280;19550;42.872;25.494;2023-01-28T07:02:43;96072.81;;;0.57;100.00
33185;BME280;19550;42.872;25.494;2023-01-28T07:05:10;96076.94;;;0.65;100.00
33185;BME280;19550;42.872;25.494;2023-01-28T07:07:37;96079.66;;;0.60;100.00
33185;BME280;19550;42.872;25.494;2023-01-28T07:10:07;96080.19;;;0.62;100.00
33185;BME280;19550;42.872;25.494;2023-01-28T07:12:34;96079.41;;;0.66;100.00
33185;BME280;19550;42.872;25.494;2023-01-28T07:15:03;96075.91;;;0.81;100.00
33185;BME280;19550;42.872;25.494;2023-01-28T07:17:30;96090.66;;;0.90;100.00
33185;BME280;19550;42.872;25.494;2023-01-28T07:19:57;96083.88;;;0.93;100.00
33185;BME280;19550;42.872;25.494;2023-01-28T07:22:24;96083.06;;;1.07;100.00
33185;BME280;19550;42.872;25.494;2023-01-28T07:24:51;96090.41;;;0.97;100.00
33185;BME280;19550;42.872;25.494;2023-01-28T07:27:18;96086.09;;;1.06;100.00
33185;BME280;19550;42.872;25.494;2023-01-28T07:29:44;96094.25;;;1.01;100.00
33185;BME280;19550;42.872;25.494;2023-01-28T07:32:13;96081.78;;;1.25;100.00
33185;BME280;19550;42.872;25.494;2023-01-28T07:34:39;96087.47;;;1.13;100.00
33185;BME280;19550;42.872;25.494;2023-01-28T07:37:09;96095.94;;;1.22;100.00
33185;BME280;19550;42.872;25.494;2023-01-28T07:39:36;96094.03;;;1.23;100.00
33185;BME280;19550;42.872;25.494;2023-01-28T07:42:03;96096.22;;;1.20;100.00
33185;BME280;19550;42.872;25.494;2023-01-28T07:44:30;96096.25;;;1.31;100.00
33185;BME280;19550;42.872;25.494;2023-01-28T07:46:58;96097.91;;;1.32;100.00
33185;BME280;19550;42.872;25.494;2023-01-28T07:49:26;96098.72;;;1.32;100.00
33185;BME280;19550;42.872;25.494;2023-01-28T07:51:53;96098.72;;;1.37;100.00
33185;BME280;19550;42.872;25.494;2023-01-28T07:54:20;96097.34;;;1.25;100.00
33185;BME280;19550;42.872;25.494;2023-01-28T07:56:46;96106.88;;;1.27;100.00
33185;BME280;19550;42.872;25.494;2023-01-28T07:59:13;96101.16;;;1.34;100.00
33185;BME280;19550;42.872;25.494;2023-01-28T08:01:40;96105.00;;;1.33;100.00
33185;BME280;19550;42.872;25.494;2023-01-28T08:04:07;96097.66;;;1.43;100.00
33185;BME280;19550;42.872;25.494;2023-01-28T08:06:35;96103.66;;;1.50;100.00
33185;BME280;19550;42.872;25.494;2023-01-28T08:09:03;96108.56;;;1.48;100.00
33185;BME280;19550;42.872;25.494;2023-01-28T08:11:31;96112.94;;;1.49;100.00
33185;BME280;19550;42.872;25.494;2023-01-28T08:13:58;96107.22;;;1.46;100.00
33185;BME280;19550;42.872;25.494;2023-01-28T08:16:25;96117.31;;;1.50;100.00
33185;BME280;19550;42.872;25.494;2023-01-28T08:18:53;96115.09;;;1.42;100.00
33185;BME280;19550;42.872;25.494;2023-01-28T08:21:20;96121.41;;;1.53;100.00
33185;BME280;19550;42.872;25.494;2023-01-28T08:23:48;96119.22;;;1.55;100.00
33185;BME280;19550;42.872;25.494;2023-01-28T08:26:15;96116.78;;;1.58;100.00
33185;BME280;19550;42.872;25.494;2023-01-28T08:28:42;96127.16;;;1.62;100.00
33185;BME280;19550;42.872;25.494;2023-01-28T08:31:09;96122.25;;;1.69;100.00
33185;BME280;19550;42.872;25.494;2023-01-28T08:33:35;96121.47;;;1.78;100.00
33185;BME280;19550;42.872;25.494;2023-01-28T08:36:03;96132.66;;;1.97;100.00
33185;BME280;19550;42.872;25.494;2023-01-28T08:38:30;96119.28;;;2.11;100.00
33185;BME280;19550;42.872;25.494;2023-01-28T08:40:58;96142.78;;;1.96;100.00
33185;BME280;19550;42.872;25.494;2023-01-28T08:43:25;96139.47;;;1.99;100.00
33185;BME280;19550;42.872;25.494;2023-01-28T08:45:53;96134.03;;;1.94;100.00
33185;BME280;19550;42.872;25.494;2023-01-28T08:48:23;96144.41;;;2.03;100.00
33185;BME280;19550;42.872;25.494;2023-01-28T08:50:50;96131.28;;;1.84;100.00
33185;BME280;19550;42.872;25.494;2023-01-28T08:53:19;96124.47;;;2.02;100.00
33185;BME280;19550;42.872;25.494;2023-01-28T08:55:58;96113.78;;;2.00;100.00
33185;BME280;19550;42.872;25.494;2023-01-28T08:58:26;96121.72;;;2.17;100.00
33185;BME280;19550;42.872;25.494;2023-01-28T09:00:52;96098.78;;;2.03;100.00
33185;BME280;19550;42.872;25.494;2023-01-28T09:03:28;96111.34;;;1.94;100.00
33185;BME280;19550;42.872;25.494;2023-01-28T09:06:18;96125.28;;;2.13;100.00
33185;BME280;19550;42.872;25.494;2023-01-28T09:08:47;96122.56;;;2.18;100.00
33185;BME280;19550;42.872;25.494;2023-01-28T09:11:15;96112.72;;;2.17;100.00
33185;BME280;19550;42.872;25.494;2023-01-28T09:13:42;96118.72;;;2.39;100.00
33185;BME280;19550;42.872;25.494;2023-01-28T09:16:09;96113.16;;;2.69;100.00
33185;BME280;19550;42.872;25.494;2023-01-28T09:18:36;96124.94;;;2.70;100.00
33185;BME280;19550;42.872;25.494;2023-01-28T09:21:04;96120.28;;;2.70;100.00
33185;BME280;19550;42.872;25.494;2023-01-28T09:23:33;96109.06;;;2.72;100.00
33185;BME280;19550;42.872;25.494;2023-01-28T09:26:01;96118.38;;;2.66;100.00
33185;BME280;19550;42.872;25.494;2023-01-28T09:28:29;96105.47;;;2.82;100.00
33185;BME280;19550;42.872;25.494;2023-01-28T09:31:01;96110.09;;;2.86;100.00
33185;BME280;19550;42.872;25.494;2023-01-28T09:33:28;96104.09;;;2.84;100.00
33185;BME280;19550;42.872;25.494;2023-01-28T09:35:55;96099.38;;;2.95;100.00
33185;BME280;19550;42.872;25.494;2023-01-28T09:38:22;96103.13;;;3.14;100.00
33185;BME280;19550;42.872;25.494;2023-01-28T09:40:48;96103.72;;;3.11;100.00
33185;BME280;19550;42.872;25.494;2023-01-28T09:43:30;96108.00;;;3.27;100.00
33185;BME280;19550;42.872;25.494;2023-01-28T09:46:09;96100.69;;;3.12;100.00
33185;BME280;19550;42.872;25.494;2023-01-28T09:48:40;96103.47;;;3.02;100.00
33185;BME280;19550;42.872;25.494;2023-01-28T09:51:10;96102.53;;;3.27;100.00
33185;BME280;19550;42.872;25.494;2023-01-28T09:53:46;96105.88;;;3.14;100.00
33185;BME280;19550;42.872;25.494;2023-01-28T09:56:21;96103.31;;;3.33;100.00
33185;BME280;19550;42.872;25.494;2023-01-28T09:58:52;96108.94;;;3.56;100.00
33185;BME280;19550;42.872;25.494;2023-01-28T10:01:37;96116.22;;;3.76;100.00
33185;BME280;19550;42.872;25.494;2023-01-28T10:04:19;96107.03;;;3.96;100.00
33185;BME280;19550;42.872;25.494;2023-01-28T10:07:00;96112.66;;;4.10;100.00
33185;BME280;19550;42.872;25.494;2023-01-28T10:09:36;96117.72;;;3.92;100.00
33185;BME280;19550;42.872;25.494;2023-01-28T10:18:08;96112.50;;;3.96;100.00
33185;BME280;19550;42.872;25.494;2023-01-28T10:20:37;96109.94;;;3.71;99.29
33185;BME280;19550;42.872;25.494;2023-01-28T10:23:13;96106.47;;;3.55;99.33
33185;BME280;19550;42.872;25.494;2023-01-28T10:25:59;96105.38;;;3.56;100.00
33185;BME280;19550;42.872;25.494;2023-01-28T10:28:33;96115.31;;;3.86;99.43
33185;BME280;19550;42.872;25.494;2023-01-28T10:31:00;96100.75;;;3.90;100.00
33185;BME280;19550;42.872;25.494;2023-01-28T10:33:30;96111.19;;;3.88;100.00
33185;BME280;19550;42.872;25.494;2023-01-28T10:36:01;96109.03;;;3.85;100.00
33185;BME280;19550;42.872;25.494;2023-01-28T10:38:30;96102.53;;;4.10;100.00
33185;BME280;19550;42.872;25.494;2023-01-28T10:41:00;96105.16;;;3.91;100.00
33185;BME280;19550;42.872;25.494;2023-01-28T10:43:28;96105.25;;;4.10;100.00
33185;BME280;19550;42.872;25.494;2023-01-28T10:46:00;96118.94;;;4.15;100.00
33185;BME280;19550;42.872;25.494;2023-01-28T10:48:31;96116.69;;;4.22;100.00
33185;BME280;19550;42.872;25.494;2023-01-28T10:51:01;96119.50;;;4.12;100.00
33185;BME280;19550;42.872;25.494;2023-01-28T10:53:34;96116.69;;;4.22;99.75
33185;BME280;19550;42.872;25.494;2023-01-28T10:56:04;96110.53;;;4.02;100.00
33185;BME280;19550;42.872;25.494;2023-01-28T10:58:33;96111.22;;;3.83;100.00
33185;BME280;19550;42.872;25.494;2023-01-28T11:01:05;96119.81;;;4.06;100.00
33185;BME280;19550;42.872;25.494;2023-01-28T11:03:51;96113.16;;;4.17;100.00
33185;BME280;19550;42.872;25.494;2023-01-28T11:06:23;96118.44;;;4.08;100.00
33185;BME280;19550;42.872;25.494;2023-01-28T11:08:50;96117.53;;;3.84;100.00
33185;BME280;19550;42.872;25.494;2023-01-28T11:11:24;96114.84;;;3.79;100.00
33185;BME280;19550;42.872;25.494;2023-01-28T11:13:52;96108.31;;;3.70;100.00
33185;BME280;19550;42.872;25.494;2023-01-28T11:16:23;96103.06;;;3.73;100.00
33185;BME280;19550;42.872;25.494;2023-01-28T11:18:53;96111.59;;;3.67;100.00
33185;BME280;19550;42.872;25.494;2023-01-28T11:21:22;96095.47;;;3.60;100.00
33185;BME280;19550;42.872;25.494;2023-01-28T11:23:51;96109.13;;;3.70;100.00
33185;BME280;19550;42.872;25.494;2023-01-28T11:26:22;96109.38;;;3.74;100.00
33185;BME280;19550;42.872;25.494;2023-01-28T11:28:51;96106.44;;;3.65;100.00
33185;BME280;19550;42.872;25.494;2023-01-28T11:31:20;96110.19;;;3.74;100.00
33185;BME280;19550;42.872;25.494;2023-01-28T11:33:50;96102.38;;;3.52;100.00
33185;BME280;19550;42.872;25.494;2023-01-28T11:36:22;96108.78;;;3.38;100.00
33185;BME280;19550;42.872;25.494;2023-01-28T11:38:50;96102.00;;;3.25;100.00
33185;BME280;19550;42.872;25.494;2023-01-28T11:41:18;96107.84;;;3.03;100.00
33185;BME280;19550;42.872;25.494;2023-01-28T11:43:51;96100.00;;;2.76;100.00
33185;BME280;19550;42.872;25.494;2023-01-28T11:46:30;96106.53;;;2.80;100.00
33185;BME280;19550;42.872;25.494;2023-01-28T11:49:06;96105.97;;;2.99;100.00
33185;BME280;19550;42.872;25.494;2023-01-28T11:51:41;96114.91;;;3.14;100.00
33185;BME280;19550;42.872;25.494;2023-01-28T11:54:22;96114.63;;;3.16;100.00
33185;BME280;19550;42.872;25.494;2023-01-28T11:57:01;96108.78;;;3.33;100.00
33185;BME280;19550;42.872;25.494;2023-01-28T12:02:36;96115.09;;;3.38;100.00
33185;BME280;19550;42.872;25.494;2023-01-28T12:05:18;96116.28;;;3.17;100.00
33185;BME280;19550;42.872;25.494;2023-01-28T12:07:53;96116.06;;;3.52;100.00
33185;BME280;19550;42.872;25.494;2023-01-28T12:10:28;96107.56;;;3.54;100.00
33185;BME280;19550;42.872;25.494;2023-01-28T12:13:14;96111.16;;;3.49;100.00
33185;BME280;19550;42.872;25.494;2023-01-28T12:16:13;96112.00;;;3.50;100.00
33185;BME280;19550;42.872;25.494;2023-01-28T12:19:16;96116.81;;;3.14;100.00
33185;BME280;19550;42.872;25.494;2023-01-28T12:22:13;96120.97;;;3.06;100.00
33185;BME280;19550;42.872;25.494;2023-01-28T12:25:02;96103.94;;;3.14;100.00
33185;BME280;19550;42.872;25.494;2023-01-28T12:27:41;96109.25;;;2.96;100.00
33185;BME280;19550;42.872;25.494;2023-01-28T12:30:22;96111.22;;;2.85;100.00
33185;BME280;19550;42.872;25.494;2023-01-28T12:33:07;96116.75;;;2.65;100.00
33185;BME280;19550;42.872;25.494;2023-01-28T12:35:53;96112.34;;;2.64;100.00
33185;BME280;19550;42.872;25.494;2023-01-28T12:38:30;96120.81;;;2.77;100.00
33185;BME280;19550;42.872;25.494;2023-01-28T12:41:04;96119.97;;;2.77;100.00
33185;BME280;19550;42.872;25.494;2023-01-28T12:43:42;96120.22;;;2.80;100.00
33185;BME280;19550;42.872;25.494;2023-01-28T12:46:17;96124.28;;;2.93;100.00
33185;BME280;19550;42.872;25.494;2023-01-28T12:48:50;96124.53;;;3.12;100.00
33185;BME280;19550;42.872;25.494;2023-01-28T12:51:24;96125.00;;;3.24;100.00
33185;BME280;19550;42.872;25.494;2023-01-28T12:53:56;96129.59;;;3.34;100.00
33185;BME280;19550;42.872;25.494;2023-01-28T12:56:30;96128.84;;;3.23;100.00
33185;BME280;19550;42.872;25.494;2023-01-28T12:59:02;96138.41;;;3.31;100.00
33185;BME280;19550;42.872;25.494;2023-01-28T13:01:36;96145.22;;;3.33;100.00
33185;BME280;19550;42.872;25.494;2023-01-28T13:04:11;96139.09;;;2.92;100.00
33185;BME280;19550;42.872;25.494;2023-01-28T13:06:43;96140.41;;;3.00;100.00
33185;BME280;19550;42.872;25.494;2023-01-28T13:09:15;96146.44;;;3.12;100.00
33185;BME280;19550;42.872;25.494;2023-01-28T13:11:46;96132.72;;;3.12;100.00
33185;BME280;19550;42.872;25.494;2023-01-28T13:14:14;96148.03;;;3.18;100.00
33185;BME280;19550;42.872;25.494;2023-01-28T13:16:42;96150.53;;;3.09;100.00
33185;BME280;19550;42.872;25.494;2023-01-28T13:19:22;96152.91;;;3.26;100.00
33185;BME280;19550;42.872;25.494;2023-01-28T13:21:49;96152.16;;;3.15;100.00
33185;BME280;19550;42.872;25.494;2023-01-28T13:24:22;96156.31;;;3.03;100.00